createdAt,value
2022-09-24T00:02:07.032Z,11.69
2022-09-24T00:04:35.891Z,11.58
2022-09-24T00:07:04.090Z,11.42
2022-09-24T00:09:32.223Z,11.45
2022-09-24T00:12:00.643Z,11.54
2022-09-24T00:14:30.117Z,11.44
2022-09-24T00:16:58.240Z,11.49
2022-09-24T00:19:26.303Z,11.41
2022-09-24T00:21:54.400Z,11.29
2022-09-24T00:24:39.812Z,11.30
2022-09-24T00:27:08.254Z,11.37
2022-09-24T00:29:38.384Z,11.36
2022-09-24T00:32:07.409Z,11.35
2022-09-24T00:34:35.615Z,11.44
2022-09-24T00:37:03.703Z,11.27
2022-09-24T00:39:31.745Z,11.20
2022-09-24T00:41:59.953Z,11.24
2022-09-24T00:44:57.340Z,11.23
2022-09-24T00:47:36.944Z,11.25
2022-09-24T00:50:26.527Z,11.25
2022-09-24T00:52:58.145Z,11.24
2022-09-24T00:55:26.708Z,11.18
2022-09-24T00:57:57.706Z,10.95
2022-09-24T01:00:27.820Z,10.84
2022-09-24T01:03:00.020Z,10.77
2022-09-24T01:05:28.300Z,10.77
2022-09-24T01:07:56.500Z,11.01
2022-09-24T01:10:51.204Z,11.05
2022-09-24T01:13:48.447Z,11.00
2022-09-24T01:16:26.075Z,11.04
2022-09-24T01:19:05.807Z,11.21
2022-09-24T01:21:38.785Z,10.92
2022-09-24T01:24:29.138Z,11.01
2022-09-24T01:27:04.199Z,11.06
2022-09-24T01:29:56.293Z,11.04
2022-09-24T01:32:32.482Z,11.11
2022-09-24T01:35:04.161Z,10.86
2022-09-24T01:37:34.780Z,10.98
2022-09-24T01:40:06.322Z,10.93
2022-09-24T01:42:35.064Z,10.91
2022-09-24T01:45:05.019Z,10.82
2022-09-24T01:47:39.828Z,10.81
2022-09-24T01:50:09.632Z,10.89
2022-09-24T01:52:43.666Z,10.91
2022-09-24T01:55:14.809Z,10.83
2022-09-24T01:57:45.814Z,10.86
2022-09-24T02:00:16.907Z,10.93
2022-09-24T02:02:47.457Z,10.82
2022-09-24T02:05:18.763Z,10.94
2022-09-24T02:07:50.876Z,10.76
2022-09-24T02:10:21.466Z,10.82
2022-09-24T02:12:53.744Z,10.74
2022-09-24T02:15:31.386Z,10.69
2022-09-24T02:18:05.421Z,10.67
2022-09-24T02:20:35.995Z,10.74
2022-09-24T02:23:05.400Z,10.79
2022-09-24T02:25:37.229Z,10.74
2022-09-24T02:28:05.351Z,10.75
2022-09-24T02:30:39.306Z,10.69
2022-09-24T02:33:28.379Z,10.79
2022-09-24T02:35:55.502Z,10.69
2022-09-24T02:38:24.098Z,10.77
2022-09-24T02:40:53.195Z,10.67
2022-09-24T02:43:21.247Z,10.72
2022-09-24T02:45:50.964Z,10.78
2022-09-24T02:48:19.707Z,10.63
2022-09-24T02:50:47.773Z,10.49
2022-09-24T02:53:15.814Z,10.57
2022-09-24T02:55:43.839Z,10.61
2022-09-24T02:58:12.295Z,10.71
2022-09-24T03:00:40.322Z,10.44
2022-09-24T03:03:09.747Z,10.43
2022-09-24T03:05:37.879Z,10.41
2022-09-24T03:08:07.650Z,10.45
2022-09-24T03:10:36.052Z,10.43
2022-09-24T03:13:04.042Z,10.59
2022-09-24T03:15:32.094Z,10.61
2022-09-24T03:18:00.205Z,10.44
2022-09-24T03:20:29.819Z,10.53
2022-09-24T03:22:57.869Z,10.61
2022-09-24T03:25:26.931Z,10.40
2022-09-24T03:27:55.037Z,10.26
2022-09-24T03:30:40.535Z,10.34
2022-09-24T03:33:08.606Z,10.36
2022-09-24T03:35:37.959Z,10.51
2022-09-24T03:38:06.028Z,10.33
2022-09-24T03:40:34.079Z,10.45
2022-09-24T03:43:02.149Z,10.33
2022-09-24T03:45:32.063Z,10.47
2022-09-24T03:48:00.098Z,10.37
2022-09-24T03:50:28.223Z,10.34
2022-09-24T03:52:57.585Z,10.36
2022-09-24T03:55:25.607Z,10.53
2022-09-24T03:57:53.693Z,10.62
2022-09-24T04:00:22.087Z,10.49
2022-09-24T04:02:50.250Z,10.46
2022-09-24T04:05:18.907Z,10.45
2022-09-24T04:07:47.041Z,10.38
2022-09-24T04:10:16.633Z,10.43
2022-09-24T04:12:45.737Z,10.26
2022-09-24T04:15:16.616Z,10.21
2022-09-24T04:17:50.915Z,10.36
2022-09-24T04:20:22.805Z,10.23
2022-09-24T04:22:51.496Z,10.28
2022-09-24T04:25:21.726Z,10.43
2022-09-24T04:27:54.810Z,10.36
2022-09-24T04:30:23.526Z,10.40
2022-09-24T04:32:51.998Z,10.28
2022-09-24T04:35:20.432Z,10.37
2022-09-24T04:37:49.168Z,10.32
2022-09-24T04:40:17.647Z,10.28
2022-09-24T04:42:47.372Z,10.08
2022-09-24T04:45:20.260Z,10.33
2022-09-24T04:47:56.187Z,10.26
2022-09-24T04:50:24.956Z,10.09
2022-09-24T04:52:54.442Z,10.05
2022-09-24T04:55:22.836Z,10.03
2022-09-24T04:57:52.591Z,10.21
2022-09-24T05:00:22.120Z,10.28
2022-09-24T05:02:57.292Z,10.29
2022-09-24T05:05:25.489Z,10.28
2022-09-24T05:07:53.700Z,10.45
2022-09-24T05:10:21.802Z,10.35
2022-09-24T05:12:49.915Z,10.46
2022-09-24T05:15:20.273Z,9.84
2022-09-24T05:17:49.196Z,10.11
2022-09-24T05:20:17.916Z,9.89
2022-09-24T05:22:46.740Z,10.13
2022-09-24T05:25:15.984Z,10.24
2022-09-24T05:27:46.291Z,10.52
2022-09-24T05:30:15.163Z,10.47
2022-09-24T05:32:44.689Z,10.26
2022-09-24T05:35:13.836Z,10.38
2022-09-24T05:37:42.661Z,10.47
2022-09-24T05:40:29.102Z,10.65
2022-09-24T05:43:01.546Z,10.61
2022-09-24T05:45:29.747Z,10.76
2022-09-24T05:48:00.180Z,10.86
2022-09-24T05:50:28.601Z,10.90
2022-09-24T05:52:57.205Z,10.59
2022-09-24T05:55:30.043Z,10.72
2022-09-24T05:58:04.361Z,10.97
2022-09-24T06:00:32.638Z,10.73
2022-09-24T06:03:08.060Z,10.89
2022-09-24T06:05:36.638Z,11.01
2022-09-24T06:08:05.016Z,10.92
2022-09-24T06:10:33.460Z,10.66
2022-09-24T06:13:01.691Z,10.58
2022-09-24T06:15:29.718Z,11.00
2022-09-24T06:17:57.821Z,11.06
2022-09-24T06:20:27.603Z,10.97
2022-09-24T06:22:57.558Z,11.01
2022-09-24T06:25:26.084Z,10.96
2022-09-24T06:28:01.841Z,11.21
2022-09-24T06:30:31.501Z,11.30
2022-09-24T06:33:03.270Z,11.52
2022-09-24T06:35:33.170Z,11.37
2022-09-24T06:38:01.429Z,11.23
2022-09-24T06:40:35.555Z,11.24
2022-09-24T06:43:05.255Z,11.29
2022-09-24T06:45:33.473Z,11.34
2022-09-24T06:48:03.082Z,11.63
2022-09-24T06:50:34.464Z,11.70
2022-09-24T06:53:06.459Z,11.68
2022-09-24T06:55:35.024Z,11.70
2022-09-24T06:58:04.616Z,11.90
2022-09-24T07:00:33.230Z,11.84
2022-09-24T07:03:01.454Z,11.71
2022-09-24T07:05:29.523Z,11.85
2022-09-24T07:07:59.024Z,11.84
2022-09-24T07:10:27.518Z,11.88
2022-09-24T07:12:55.788Z,11.85
2022-09-24T07:15:23.859Z,12.00
2022-09-24T07:17:56.279Z,12.08
2022-09-24T07:20:24.893Z,12.05
2022-09-24T07:22:53.024Z,12.09
2022-09-24T07:25:22.555Z,12.04
2022-09-24T07:27:50.723Z,11.89
2022-09-24T07:30:19.232Z,11.82
2022-09-24T07:32:48.390Z,11.84
2022-09-24T07:35:16.663Z,12.11
2022-09-24T07:37:44.724Z,12.11
2022-09-24T07:40:12.876Z,12.13
2022-09-24T07:42:49.693Z,12.19
2022-09-24T07:45:18.566Z,12.15
2022-09-24T07:47:46.951Z,12.21
2022-09-24T07:50:15.330Z,12.26
2022-09-24T07:52:43.658Z,12.47
2022-09-24T07:55:11.964Z,12.49
2022-09-24T07:57:40.597Z,12.62
2022-09-24T08:00:13.083Z,12.28
2022-09-24T08:02:41.671Z,12.49
2022-09-24T08:05:10.984Z,12.56
2022-09-24T08:07:39.052Z,12.81
2022-09-24T08:10:07.888Z,12.59
2022-09-24T08:12:36.065Z,12.77
2022-09-24T08:15:04.665Z,13.05
2022-09-24T08:17:34.187Z,12.96
2022-09-24T08:20:02.837Z,13.08
2022-09-24T08:22:31.674Z,13.02
2022-09-24T08:25:00.484Z,13.37
2022-09-24T08:27:29.410Z,13.13
2022-09-24T08:29:57.989Z,13.33
2022-09-24T08:32:26.148Z,13.36
2022-09-24T08:34:55.631Z,13.50
2022-09-24T08:37:23.768Z,13.87
2022-09-24T08:39:51.966Z,13.58
2022-09-24T08:42:29.903Z,13.67
2022-09-24T08:45:17.262Z,13.67
2022-09-24T08:47:49.590Z,13.73
2022-09-24T08:50:20.983Z,13.85
2022-09-24T08:53:04.705Z,13.99
2022-09-24T08:55:36.657Z,14.05
2022-09-24T08:58:26.621Z,13.97
2022-09-24T09:00:58.933Z,14.05
2022-09-24T09:03:33.634Z,14.24
2022-09-24T09:06:04.804Z,14.07
2022-09-24T09:09:05.558Z,14.27
2022-09-24T09:11:34.792Z,14.39
2022-09-24T09:14:07.697Z,14.43
2022-09-24T09:16:44.248Z,14.20
2022-09-24T09:19:15.293Z,14.28
2022-09-24T09:21:52.774Z,14.41
2022-09-24T09:24:24.297Z,14.65
2022-09-24T09:26:56.216Z,14.72
2022-09-24T09:29:26.077Z,15.05
2022-09-24T09:32:05.320Z,14.84
2022-09-24T09:34:53.636Z,14.88
2022-09-24T09:37:29.259Z,14.86
2022-09-24T09:40:10.095Z,15.10
2022-09-24T09:42:40.633Z,14.94
2022-09-24T09:45:26.921Z,14.96
2022-09-24T09:47:57.784Z,15.15
2022-09-24T09:50:29.165Z,15.25
2022-09-24T09:53:03.694Z,15.50
2022-09-24T09:55:35.913Z,15.41
2022-09-24T09:58:12.773Z,15.30
2022-09-24T10:00:42.161Z,15.41
2022-09-24T10:03:24.216Z,15.47
2022-09-24T10:05:59.678Z,15.94
2022-09-24T10:08:30.550Z,15.72
2022-09-24T10:11:08.017Z,15.75
2022-09-24T10:13:37.249Z,15.65
2022-09-24T10:16:06.768Z,15.95
2022-09-24T10:18:37.924Z,15.80
2022-09-24T10:21:12.139Z,15.70
2022-09-24T10:23:44.568Z,15.80
2022-09-24T10:26:12.920Z,15.79
2022-09-24T10:29:05.211Z,15.88
2022-09-24T10:31:36.618Z,16.02
2022-09-24T10:34:07.176Z,16.03
2022-09-24T10:36:36.425Z,16.16
2022-09-24T10:39:13.986Z,16.04
2022-09-24T10:41:47.790Z,16.13
2022-09-24T10:44:21.104Z,16.11
2022-09-24T10:47:19.010Z,16.22
2022-09-24T10:49:55.785Z,16.18
2022-09-24T10:52:37.607Z,16.25
2022-09-24T10:55:16.700Z,16.18
2022-09-24T10:57:53.278Z,16.32
2022-09-24T11:00:22.902Z,16.44
2022-09-24T11:03:25.741Z,16.20
2022-09-24T11:05:55.489Z,16.35
2022-09-24T11:08:48.802Z,16.07
2022-09-24T11:11:31.389Z,16.16
2022-09-24T11:14:10.100Z,16.21
2022-09-24T11:17:15.854Z,16.28
2022-09-24T11:19:55.618Z,16.37
2022-09-24T11:22:30.856Z,16.19
2022-09-24T11:25:18.215Z,16.28
2022-09-24T11:27:53.866Z,16.67
2022-09-24T11:30:24.959Z,16.77
2022-09-24T11:33:04.509Z,16.86
2022-09-24T11:35:56.674Z,16.91
2022-09-24T11:38:34.284Z,17.14
2022-09-24T11:41:12.731Z,17.10
2022-09-24T11:43:55.090Z,17.21
2022-09-24T11:46:36.658Z,17.27
2022-09-24T11:49:29.597Z,17.42
2022-09-24T11:52:03.149Z,17.60
2022-09-24T11:54:34.756Z,17.62
2022-09-24T11:57:05.672Z,17.43
2022-09-24T11:59:39.882Z,17.68
2022-09-24T12:02:17.086Z,17.67
2022-09-24T12:04:56.127Z,17.79
2022-09-24T12:07:28.843Z,17.78
2022-09-24T12:10:00.739Z,17.61
2022-09-24T12:12:31.053Z,17.63
2022-09-24T12:15:03.248Z,17.76
2022-09-24T12:17:36.937Z,17.96
2022-09-24T12:20:08.289Z,18.29
2022-09-24T12:22:38.730Z,18.30
2022-09-24T12:25:12.559Z,18.49
2022-09-24T12:27:40.910Z,18.72
2022-09-24T12:30:40.705Z,18.79
2022-09-24T12:33:12.650Z,18.67
2022-09-24T12:35:59.004Z,18.80
2022-09-24T12:38:31.349Z,18.74
2022-09-24T12:41:23.271Z,18.71
2022-09-24T12:43:54.358Z,18.90
2022-09-24T12:46:26.939Z,18.84
2022-09-24T12:48:55.765Z,18.60
2022-09-24T12:51:24.253Z,18.44
2022-09-24T12:54:07.591Z,18.61
2022-09-24T12:56:35.889Z,18.60
2022-09-24T12:59:05.729Z,18.58
2022-09-24T13:01:35.860Z,18.52
2022-09-24T13:04:08.235Z,18.63
2022-09-24T13:06:38.199Z,18.36
2022-09-24T13:09:26.330Z,18.39
2022-09-24T13:12:03.873Z,18.55
2022-09-24T13:14:32.688Z,18.52
2022-09-24T13:17:06.809Z,18.64
2022-09-24T13:19:37.420Z,18.52
2022-09-24T13:22:06.149Z,18.43
2022-09-24T13:24:46.789Z,18.35
2022-09-24T13:27:26.827Z,18.34
2022-09-24T13:30:05.542Z,18.42
2022-09-24T13:32:38.316Z,18.39
2022-09-24T13:35:11.253Z,18.42
2022-09-24T13:37:42.747Z,18.38
2022-09-24T13:40:18.092Z,18.41
2022-09-24T13:42:49.099Z,18.30
2022-09-24T13:45:19.639Z,18.24
2022-09-24T13:47:51.131Z,18.33
2022-09-24T13:50:20.993Z,18.25
2022-09-24T13:52:52.927Z,18.27
2022-09-24T13:55:24.189Z,18.10
2022-09-24T13:57:52.651Z,18.08
2022-09-24T14:00:26.291Z,18.08
2022-09-24T14:03:02.519Z,17.97
2022-09-24T14:05:31.945Z,17.98
2022-09-24T14:08:04.733Z,17.95
2022-09-24T14:10:33.181Z,17.84
2022-09-24T14:13:03.213Z,17.79
2022-09-24T14:15:31.369Z,17.79
2022-09-24T14:18:01.202Z,17.80
2022-09-24T14:20:31.538Z,17.78
2022-09-24T14:22:59.830Z,17.73
2022-09-24T14:25:30.069Z,17.66
2022-09-24T14:28:00.461Z,17.68
2022-09-24T14:30:30.512Z,17.72
2022-09-24T14:33:01.466Z,17.64
2022-09-24T14:35:32.122Z,17.63
2022-09-24T14:38:04.416Z,17.61
2022-09-24T14:40:40.626Z,17.56
2022-09-24T14:43:17.689Z,17.57
2022-09-24T14:45:47.074Z,17.57
2022-09-24T14:48:24.831Z,17.57
2022-09-24T14:50:52.958Z,17.54
2022-09-24T14:53:23.812Z,17.51
2022-09-24T14:55:52.516Z,17.53
2022-09-24T14:58:25.515Z,17.54
2022-09-24T15:00:56.311Z,17.53
2022-09-24T15:03:30.051Z,17.55
2022-09-24T15:06:06.073Z,17.52
2022-09-24T15:08:34.358Z,17.48
2022-09-24T15:11:04.809Z,17.48
2022-09-24T15:13:35.341Z,17.45
2022-09-24T15:16:09.355Z,17.47
2022-09-24T15:18:38.906Z,17.48
2022-09-24T15:21:11.089Z,17.50
2022-09-24T15:23:39.266Z,17.43
2022-09-24T15:26:07.988Z,17.46
2022-09-24T15:28:35.970Z,17.45
2022-09-24T15:31:04.081Z,17.39
2022-09-24T15:33:32.085Z,17.43
2022-09-24T15:36:01.559Z,17.38
2022-09-24T15:38:29.745Z,17.31
2022-09-24T15:40:59.445Z,17.28
2022-09-24T15:43:27.801Z,17.24
2022-09-24T15:45:55.999Z,17.23
2022-09-24T15:48:24.152Z,17.24
2022-09-24T15:50:52.432Z,17.14
2022-09-24T15:53:24.029Z,17.19
2022-09-24T15:55:54.421Z,17.15
2022-09-24T15:58:23.023Z,17.11
2022-09-24T16:00:52.842Z,17.10
2022-09-24T16:03:23.771Z,17.08
2022-09-24T16:05:52.182Z,17.04
2022-09-24T16:08:21.779Z,17.04
2022-09-24T16:10:50.162Z,17.04
2022-09-24T16:13:19.088Z,17.02
2022-09-24T16:15:47.748Z,16.91
2022-09-24T16:18:17.781Z,16.87
2022-09-24T16:20:47.542Z,16.81
2022-09-24T16:23:16.713Z,16.82
2022-09-24T16:25:56.973Z,16.77
2022-09-24T16:28:26.289Z,16.78
2022-09-24T16:30:54.886Z,16.76
2022-09-24T16:33:23.544Z,16.73
2022-09-24T16:35:51.922Z,16.71
2022-09-24T16:38:22.921Z,16.64
2022-09-24T16:40:52.305Z,16.59
2022-09-24T16:43:21.907Z,16.54
2022-09-24T16:45:50.169Z,16.44
2022-09-24T16:48:18.482Z,16.49
2022-09-24T16:50:49.588Z,16.49
2022-09-24T16:53:17.701Z,16.48
2022-09-24T16:55:45.862Z,16.46
2022-09-24T16:58:13.913Z,16.44
2022-09-24T17:00:43.994Z,16.43
2022-09-24T17:03:12.548Z,16.44
2022-09-24T17:05:41.291Z,16.47
2022-09-24T17:08:09.499Z,16.44
2022-09-24T17:10:40.200Z,16.47
2022-09-24T17:13:10.890Z,16.41
2022-09-24T17:15:39.101Z,16.42
2022-09-24T17:18:08.636Z,16.39
2022-09-24T17:20:37.066Z,16.39
2022-09-24T17:23:05.675Z,16.31
2022-09-24T17:25:33.820Z,16.29
2022-09-24T17:28:04.110Z,16.30
2022-09-24T17:30:33.004Z,16.23
2022-09-24T17:33:01.183Z,16.49
2022-09-24T17:35:30.723Z,16.33
2022-09-24T17:37:58.925Z,16.22
2022-09-24T17:40:27.502Z,16.25
2022-09-24T17:42:55.786Z,16.24
2022-09-24T17:45:23.959Z,16.19
2022-09-24T17:47:57.846Z,16.24
2022-09-24T17:50:26.156Z,16.19
2022-09-24T17:52:55.728Z,16.17
2022-09-24T17:55:23.816Z,16.14
2022-09-24T17:57:51.948Z,16.12
2022-09-24T18:00:20.228Z,16.13
2022-09-24T18:02:48.450Z,16.15
2022-09-24T18:05:16.855Z,16.10
2022-09-24T18:07:45.403Z,16.10
2022-09-24T18:10:17.314Z,16.07
2022-09-24T18:12:45.553Z,16.04
2022-09-24T18:15:13.727Z,15.95
2022-09-24T18:17:41.909Z,15.99
2022-09-24T18:20:10.321Z,15.99
2022-09-24T18:22:38.691Z,16.04
2022-09-24T18:25:07.899Z,16.02
2022-09-24T18:27:38.619Z,15.91
2022-09-24T18:30:11.271Z,15.85
2022-09-24T18:32:40.255Z,15.83
2022-09-24T18:35:09.600Z,15.82
2022-09-24T18:37:37.831Z,15.78
2022-09-24T18:40:07.078Z,15.77
2022-09-24T18:42:35.342Z,15.76
2022-09-24T18:45:06.147Z,15.79
2022-09-24T18:47:38.301Z,15.79
2022-09-24T18:50:07.615Z,15.77
2022-09-24T18:52:35.890Z,15.77
2022-09-24T18:55:04.086Z,15.76
2022-09-24T18:57:32.568Z,15.67
2022-09-24T19:00:00.772Z,15.66
2022-09-24T19:02:31.241Z,15.64
2022-09-24T19:04:59.578Z,15.64
2022-09-24T19:07:27.710Z,15.65
2022-09-24T19:09:55.992Z,15.60
2022-09-24T19:12:24.131Z,15.54
2022-09-24T19:14:54.424Z,15.52
2022-09-24T19:17:22.590Z,15.57
2022-09-24T19:19:52.660Z,15.51
2022-09-24T19:22:21.056Z,15.41
2022-09-24T19:24:49.661Z,15.42
2022-09-24T19:27:17.820Z,15.41
2022-09-24T19:29:46.190Z,15.33
2022-09-24T19:32:14.506Z,15.35
2022-09-24T19:34:42.702Z,15.32
2022-09-24T19:37:12.131Z,15.37
2022-09-24T19:39:40.374Z,15.31
2022-09-24T19:42:08.528Z,15.32
2022-09-24T19:44:36.712Z,15.26
2022-09-24T19:47:05.121Z,15.31
2022-09-24T19:49:33.260Z,15.22
2022-09-24T19:52:01.443Z,15.21
2022-09-24T19:54:31.361Z,15.14
2022-09-24T19:56:59.538Z,15.09
2022-09-24T19:59:27.616Z,15.10
2022-09-24T20:01:55.874Z,15.07
2022-09-24T20:04:24.704Z,15.06
2022-09-24T20:06:54.274Z,15.03
2022-09-24T20:09:22.359Z,14.91
2022-09-24T20:11:51.855Z,14.89
2022-09-24T20:14:21.442Z,14.89
2022-09-24T20:16:49.796Z,14.84
2022-09-24T20:19:20.301Z,14.84
2022-09-24T20:21:48.503Z,14.82
2022-09-24T20:24:16.984Z,14.75
2022-09-24T20:27:02.471Z,14.71
2022-09-24T20:29:32.071Z,14.69
2022-09-24T20:32:00.277Z,14.70
2022-09-24T20:34:33.710Z,14.66
2022-09-24T20:37:02.536Z,14.70
2022-09-24T20:39:30.920Z,14.70
2022-09-24T20:42:01.749Z,14.81
2022-09-24T20:44:31.695Z,14.71
2022-09-24T20:46:59.947Z,14.67
2022-09-24T20:49:28.261Z,14.53
2022-09-24T20:51:57.982Z,14.61
2022-09-24T20:54:28.247Z,14.70
2022-09-24T20:56:56.723Z,14.75
2022-09-24T20:59:25.687Z,14.80
2022-09-24T21:01:55.700Z,14.83
2022-09-24T21:04:24.590Z,14.72
2022-09-24T21:06:52.721Z,14.77
2022-09-24T21:09:21.033Z,14.68
2022-09-24T21:11:50.196Z,14.70
2022-09-24T21:14:18.697Z,14.67
2022-09-24T21:16:47.521Z,14.57
2022-09-24T21:19:17.162Z,14.59
2022-09-24T21:21:45.413Z,14.64
2022-09-24T21:24:15.248Z,14.87
2022-09-24T21:26:45.037Z,14.79
2022-09-24T21:29:15.490Z,14.81
2022-09-24T21:31:46.108Z,14.83
2022-09-24T21:34:16.831Z,14.78
2022-09-24T21:36:46.684Z,14.71
2022-09-24T21:39:17.099Z,14.68
2022-09-24T21:41:48.243Z,14.55
2022-09-24T21:44:17.606Z,14.68
2022-09-24T21:46:46.235Z,14.78
2022-09-24T21:49:17.362Z,14.67
2022-09-24T21:51:45.898Z,14.78
2022-09-24T21:54:17.509Z,14.72
2022-09-24T21:56:46.339Z,14.72
2022-09-24T21:59:32.056Z,14.79
2022-09-24T22:02:00.352Z,14.85
2022-09-24T22:04:32.261Z,14.86
2022-09-24T22:07:00.662Z,14.78
2022-09-24T22:09:29.184Z,14.73
2022-09-24T22:11:57.877Z,14.68
2022-09-24T22:14:26.189Z,14.67
2022-09-24T22:16:55.438Z,14.82
2022-09-24T22:19:23.993Z,14.74
2022-09-24T22:21:53.798Z,14.79
2022-09-24T22:24:22.170Z,14.72
2022-09-24T22:26:50.349Z,14.77
2022-09-24T22:29:18.624Z,14.83
2022-09-24T22:31:46.848Z,14.90
2022-09-24T22:34:32.420Z,14.83
2022-09-24T22:37:05.990Z,14.62
2022-09-24T22:39:35.015Z,14.54
2022-09-24T22:42:03.255Z,14.66
2022-09-24T22:44:31.559Z,14.68
2022-09-24T22:46:59.571Z,14.64
2022-09-24T22:49:27.702Z,14.60
2022-09-24T22:51:55.860Z,14.54
2022-09-24T22:54:25.475Z,14.56
2022-09-24T22:56:53.678Z,14.54
2022-09-24T22:59:21.818Z,14.44
2022-09-24T23:01:50.005Z,14.42
2022-09-24T23:04:18.300Z,14.45
2022-09-24T23:06:46.335Z,14.42
2022-09-24T23:09:14.607Z,14.44
2022-09-24T23:11:44.055Z,14.22
2022-09-24T23:14:13.978Z,14.40
2022-09-24T23:16:43.791Z,14.54
2022-09-24T23:19:14.696Z,14.58
2022-09-24T23:21:42.946Z,14.43
2022-09-24T23:24:15.374Z,14.27
2022-09-24T23:26:45.037Z,14.38
2022-09-24T23:29:14.250Z,14.36
2022-09-24T23:31:42.941Z,14.33
2022-09-24T23:34:13.159Z,14.36
2022-09-24T23:36:41.485Z,14.36
2022-09-24T23:39:09.644Z,14.28
2022-09-24T23:41:37.975Z,14.33
2022-09-24T23:44:07.695Z,14.36
2022-09-24T23:46:35.839Z,14.29
2022-09-24T23:49:04.332Z,14.10
2022-09-24T23:51:32.508Z,14.21
2022-09-24T23:54:00.841Z,14.13
2022-09-24T23:56:29.269Z,14.25
2022-09-24T23:58:57.732Z,14.34
